sensor_id;sensor_type;location;lat;lon;timestamp;pressure;altitude;pressure_sealevel;temperature;humidity
19831;BME280;10076;52.008;4.708;2023-07-09T00:00:54;101673.78;;;27.50;100.00
19831;BME280;10076;52.008;4.708;2023-07-09T00:03:19;101666.75;;;27.56;100.00
19831;BME280;10076;52.008;4.708;2023-07-09T00:05:48;101674.66;;;27.51;100.00
19831;BME280;10076;52.008;4.708;2023-07-09T00:08:29;101680.66;;;27.46;100.00
19831;BME280;10076;52.008;4.708;2023-07-09T00:10:55;101674.66;;;27.51;100.00
19831;BME280;10076;52.008;4.708;2023-07-09T00:13:22;101681.94;;;27.50;100.00
19831;BME280;10076;52.008;4.708;2023-07-09T00:15:49;101683.56;;;27.45;100.00
19831;BME280;10076;52.008;4.708;2023-07-09T00:18:15;101695.88;;;27.41;100.00
19831;BME280;10076;52.008;4.708;2023-07-09T00:20:40;101696.56;;;27.28;100.00
19831;BME280;10076;52.008;4.708;2023-07-09T00:23:09;101705.88;;;27.40;100.00
19831;BME280;10076;52.008;4.708;2023-07-09T00:25:34;101700.28;;;27.21;100.00
19831;BME280;10076;52.008;4.708;2023-07-09T00:28:01;101697.22;;;27.10;100.00
19831;BME280;10076;52.008;4.708;2023-07-09T00:30:27;101701.75;;;27.23;100.00
19831;BME280;10076;52.008;4.708;2023-07-09T00:32:52;101704.00;;;27.20;100.00
19831;BME280;10076;52.008;4.708;2023-07-09T00:35:19;101706.03;;;27.32;100.00
19831;BME280;10076;52.008;4.708;2023-07-09T00:37:46;101701.53;;;27.25;100.00
19831;BME280;10076;52.008;4.708;2023-07-09T00:40:19;101709.88;;;27.23;100.00
19831;BME280;10076;52.008;4.708;2023-07-09T00:42:48;101705.13;;;27.25;100.00
19831;BME280;10076;52.008;4.708;2023-07-09T00:45:21;101696.97;;;27.25;100.00
19831;BME280;10076;52.008;4.708;2023-07-09T00:53:29;101702.13;;;27.00;100.00
19831;BME280;10076;52.008;4.708;2023-07-09T00:56:08;101702.03;;;27.08;100.00
19831;BME280;10076;52.008;4.708;2023-07-09T00:58:37;101698.31;;;26.94;100.00
19831;BME280;10076;52.008;4.708;2023-07-09T01:01:08;101707.78;;;26.84;100.00
19831;BME280;10076;52.008;4.708;2023-07-09T01:03:42;101701.94;;;26.87;100.00
19831;BME280;10076;52.008;4.708;2023-07-09T01:06:10;101706.84;;;26.77;100.00
19831;BME280;10076;52.008;4.708;2023-07-09T01:08:39;101695.63;;;26.80;100.00
19831;BME280;10076;52.008;4.708;2023-07-09T01:11:18;101703.56;;;26.81;100.00
19831;BME280;10076;52.008;4.708;2023-07-09T01:13:50;101695.25;;;26.83;100.00
19831;BME280;10076;52.008;4.708;2023-07-09T01:16:17;101697.75;;;26.84;100.00
19831;BME280;10076;52.008;4.708;2023-07-09T01:18:43;101703.88;;;26.72;100.00
19831;BME280;10076;52.008;4.708;2023-07-09T01:21:10;101704.28;;;26.69;100.00
19831;BME280;10076;52.008;4.708;2023-07-09T01:23:41;101712.38;;;26.83;100.00
19831;BME280;10076;52.008;4.708;2023-07-09T01:26:10;101716.16;;;26.89;100.00
19831;BME280;10076;52.008;4.708;2023-07-09T01:28:36;101723.00;;;26.85;100.00
19831;BME280;10076;52.008;4.708;2023-07-09T01:31:02;101716.25;;;26.60;100.00
19831;BME280;10076;52.008;4.708;2023-07-09T01:33:29;101716.53;;;26.51;100.00
19831;BME280;10076;52.008;4.708;2023-07-09T01:35:55;101718.28;;;26.58;100.00
19831;BME280;10076;52.008;4.708;2023-07-09T01:38:26;101717.47;;;26.57;100.00
19831;BME280;10076;52.008;4.708;2023-07-09T01:40:58;101721.13;;;26.50;100.00
19831;BME280;10076;52.008;4.708;2023-07-09T01:43:24;101719.44;;;26.49;100.00
19831;BME280;10076;52.008;4.708;2023-07-09T01:45:53;101714.31;;;26.40;100.00
19831;BME280;10076;52.008;4.708;2023-07-09T01:48:18;101718.50;;;26.42;100.00
19831;BME280;10076;52.008;4.708;2023-07-09T01:50:46;101709.63;;;26.48;100.00
19831;BME280;10076;52.008;4.708;2023-07-09T01:53:15;101719.44;;;26.35;100.00
19831;BME280;10076;52.008;4.708;2023-07-09T01:55:43;101717.22;;;26.38;100.00
19831;BME280;10076;52.008;4.708;2023-07-09T01:58:08;101716.44;;;26.30;100.00
19831;BME280;10076;52.008;4.708;2023-07-09T02:00:34;101717.00;;;26.25;100.00
19831;BME280;10076;52.008;4.708;2023-07-09T02:03:00;101727.00;;;26.25;100.00
19831;BME280;10076;52.008;4.708;2023-07-09T02:05:29;101724.19;;;26.18;100.00
19831;BME280;10076;52.008;4.708;2023-07-09T02:07:55;101722.63;;;26.09;100.00
19831;BME280;10076;52.008;4.708;2023-07-09T02:10:20;101730.47;;;26.19;100.00
19831;BME280;10076;52.008;4.708;2023-07-09T02:12:46;101715.44;;;26.16;100.00
19831;BME280;10076;52.008;4.708;2023-07-09T02:15:12;101715.03;;;26.19;100.00
19831;BME280;10076;52.008;4.708;2023-07-09T02:17:37;101719.50;;;26.27;100.00
19831;BME280;10076;52.008;4.708;2023-07-09T02:20:03;101722.88;;;26.14;100.00
19831;BME280;10076;52.008;4.708;2023-07-09T02:22:30;101723.25;;;26.11;100.00
19831;BME280;10076;52.008;4.708;2023-07-09T02:24:56;101717.66;;;26.13;100.00
19831;BME280;10076;52.008;4.708;2023-07-09T02:27:21;101720.66;;;26.03;100.00
19831;BME280;10076;52.008;4.708;2023-07-09T02:29:49;101715.78;;;25.99;100.00
19831;BME280;10076;52.008;4.708;2023-07-09T02:32:20;101721.88;;;26.15;100.00
19831;BME280;10076;52.008;4.708;2023-07-09T02:34:46;101719.34;;;25.99;100.00
19831;BME280;10076;52.008;4.708;2023-07-09T02:37:15;101718.41;;;26.07;100.00
19831;BME280;10076;52.008;4.708;2023-07-09T02:39:42;101718.13;;;26.02;100.00
19831;BME280;10076;52.008;4.708;2023-07-09T02:42:10;101714.56;;;26.01;100.00
19831;BME280;10076;52.008;4.708;2023-07-09T02:44:36;101710.00;;;26.02;100.00
19831;BME280;10076;52.008;4.708;2023-07-09T02:47:02;101716.91;;;25.90;100.00
19831;BME280;10076;52.008;4.708;2023-07-09T02:49:27;101715.78;;;25.84;100.00
19831;BME280;10076;52.008;4.708;2023-07-09T02:51:52;101717.25;;;25.87;100.00
19831;BME280;10076;52.008;4.708;2023-07-09T02:54:18;101716.78;;;25.83;100.00
19831;BME280;10076;52.008;4.708;2023-07-09T02:56:43;101717.06;;;25.88;100.00
19831;BME280;10076;52.008;4.708;2023-07-09T02:59:08;101726.06;;;25.89;100.00
19831;BME280;10076;52.008;4.708;2023-07-09T03:01:34;101719.88;;;25.81;100.00
19831;BME280;10076;52.008;4.708;2023-07-09T03:04:01;101714.28;;;25.82;100.00
19831;BME280;10076;52.008;4.708;2023-07-09T03:06:27;101714.38;;;25.88;100.00
19831;BME280;10076;52.008;4.708;2023-07-09T03:08:52;101702.50;;;25.75;100.00
19831;BME280;10076;52.008;4.708;2023-07-09T03:11:19;101712.41;;;25.82;100.00
19831;BME280;10076;52.008;4.708;2023-07-09T03:13:45;101712.13;;;25.78;100.00
19831;BME280;10076;52.008;4.708;2023-07-09T03:16:11;101722.50;;;26.03;100.00
19831;BME280;10076;52.008;4.708;2023-07-09T03:18:37;101722.69;;;25.87;100.00
19831;BME280;10076;52.008;4.708;2023-07-09T03:21:02;101722.88;;;25.85;100.00
19831;BME280;10076;52.008;4.708;2023-07-09T03:23:28;101721.47;;;25.89;100.00
19831;BME280;10076;52.008;4.708;2023-07-09T03:25:54;101726.97;;;25.82;100.00
19831;BME280;10076;52.008;4.708;2023-07-09T03:28:20;101728.56;;;26.05;100.00
19831;BME280;10076;52.008;4.708;2023-07-09T03:30:46;101725.03;;;25.68;100.00
19831;BME280;10076;52.008;4.708;2023-07-09T03:33:13;101725.84;;;25.90;100.00
19831;BME280;10076;52.008;4.708;2023-07-09T03:35:40;101731.25;;;25.76;100.00
19831;BME280;10076;52.008;4.708;2023-07-09T03:38:06;101729.56;;;25.75;100.00
19831;BME280;10076;52.008;4.708;2023-07-09T03:40:32;101737.91;;;25.88;100.00
19831;BME280;10076;52.008;4.708;2023-07-09T03:42:57;101745.53;;;25.84;100.00
19831;BME280;10076;52.008;4.708;2023-07-09T03:45:23;101745.16;;;25.73;100.00
19831;BME280;10076;52.008;4.708;2023-07-09T03:47:49;101739.78;;;25.87;100.00
19831;BME280;10076;52.008;4.708;2023-07-09T03:50:14;101740.94;;;25.71;100.00
19831;BME280;10076;52.008;4.708;2023-07-09T03:52:40;101740.59;;;25.88;100.00
19831;BME280;10076;52.008;4.708;2023-07-09T03:55:05;101748.31;;;25.77;100.00
19831;BME280;10076;52.008;4.708;2023-07-09T03:57:32;101750.22;;;25.90;100.00
19831;BME280;10076;52.008;4.708;2023-07-09T03:59:58;101754.53;;;25.85;100.00
19831;BME280;10076;52.008;4.708;2023-07-09T04:02:24;101753.28;;;25.73;100.00
19831;BME280;10076;52.008;4.708;2023-07-09T04:04:49;101739.56;;;25.75;100.00
19831;BME280;10076;52.008;4.708;2023-07-09T04:07:15;101741.09;;;25.69;100.00
19831;BME280;10076;52.008;4.708;2023-07-09T04:09:40;101740.94;;;25.71;100.00
19831;BME280;10076;52.008;4.708;2023-07-09T04:12:06;101735.47;;;25.79;100.00
19831;BME280;10076;52.008;4.708;2023-07-09T04:14:31;101728.78;;;25.67;100.00
19831;BME280;10076;52.008;4.708;2023-07-09T04:16:57;101731.72;;;25.57;100.00
19831;BME280;10076;52.008;4.708;2023-07-09T04:19:23;101739.69;;;25.59;100.00
19831;BME280;10076;52.008;4.708;2023-07-09T04:21:48;101727.19;;;25.58;100.00
19831;BME280;10076;52.008;4.708;2023-07-09T04:24:16;101733.91;;;25.62;100.00
19831;BME280;10076;52.008;4.708;2023-07-09T04:26:42;101734.81;;;25.54;100.00
19831;BME280;10076;52.008;4.708;2023-07-09T04:29:07;101730.66;;;25.66;100.00
19831;BME280;10076;52.008;4.708;2023-07-09T04:31:32;101737.56;;;25.69;100.00
19831;BME280;10076;52.008;4.708;2023-07-09T04:33:57;101739.31;;;25.62;100.00
19831;BME280;10076;52.008;4.708;2023-07-09T04:36:23;101739.84;;;25.80;100.00
19831;BME280;10076;52.008;4.708;2023-07-09T04:38:49;101732.81;;;25.71;100.00
19831;BME280;10076;52.008;4.708;2023-07-09T04:41:14;101727.56;;;25.69;100.00
19831;BME280;10076;52.008;4.708;2023-07-09T04:43:39;101735.53;;;25.71;100.00
19831;BME280;10076;52.008;4.708;2023-07-09T04:46:05;101738.22;;;25.71;100.00
19831;BME280;10076;52.008;4.708;2023-07-09T04:48:30;101733.22;;;25.82;100.00
19831;BME280;10076;52.008;4.708;2023-07-09T04:50:55;101746.03;;;25.88;100.00
19831;BME280;10076;52.008;4.708;2023-07-09T04:53:21;101740.06;;;25.92;100.00
19831;BME280;10076;52.008;4.708;2023-07-09T04:55:49;101746.75;;;25.82;100.00
19831;BME280;10076;52.008;4.708;2023-07-09T04:58:14;101747.34;;;26.06;100.00
19831;BME280;10076;52.008;4.708;2023-07-09T05:00:41;101751.53;;;25.94;100.00
19831;BME280;10076;52.008;4.708;2023-07-09T05:03:07;101749.69;;;26.09;100.00
19831;BME280;10076;52.008;4.708;2023-07-09T05:05:33;101745.50;;;26.07;100.00
19831;BME280;10076;52.008;4.708;2023-07-09T05:07:58;101746.78;;;26.25;100.00
19831;BME280;10076;52.008;4.708;2023-07-09T05:10:24;101748.47;;;26.26;100.00
19831;BME280;10076;52.008;4.708;2023-07-09T05:12:50;101745.78;;;26.26;100.00
19831;BME280;10076;52.008;4.708;2023-07-09T05:15:17;101755.00;;;26.32;100.00
19831;BME280;10076;52.008;4.708;2023-07-09T05:17:43;101756.53;;;26.34;100.00
19831;BME280;10076;52.008;4.708;2023-07-09T05:20:09;101752.41;;;26.52;100.00
19831;BME280;10076;52.008;4.708;2023-07-09T05:22:34;101744.75;;;26.56;100.00
19831;BME280;10076;52.008;4.708;2023-07-09T05:24:59;101751.53;;;26.66;100.00
19831;BME280;10076;52.008;4.708;2023-07-09T05:27:25;101751.63;;;26.87;100.00
19831;BME280;10076;52.008;4.708;2023-07-09T05:29:50;101759.22;;;27.13;100.00
19831;BME280;10076;52.008;4.708;2023-07-09T05:32:15;101758.41;;;27.33;100.00
19831;BME280;10076;52.008;4.708;2023-07-09T05:34:41;101761.31;;;27.31;100.00
19831;BME280;10076;52.008;4.708;2023-07-09T05:37:06;101762.09;;;27.25;100.00
19831;BME280;10076;52.008;4.708;2023-07-09T05:39:32;101758.31;;;26.91;100.00
19831;BME280;10076;52.008;4.708;2023-07-09T05:41:57;101754.38;;;26.94;100.00
19831;BME280;10076;52.008;4.708;2023-07-09T05:44:22;101757.50;;;27.26;100.00
19831;BME280;10076;52.008;4.708;2023-07-09T05:46:48;101755.69;;;27.33;100.00
19831;BME280;10076;52.008;4.708;2023-07-09T05:49:13;101755.44;;;27.70;100.00
19831;BME280;10076;52.008;4.708;2023-07-09T05:51:38;101757.09;;;27.71;100.00
19831;BME280;10076;52.008;4.708;2023-07-09T05:54:04;101759.44;;;27.74;100.00
19831;BME280;10076;52.008;4.708;2023-07-09T05:56:29;101765.06;;;27.72;100.00
19831;BME280;10076;52.008;4.708;2023-07-09T05:58:54;101769.72;;;27.78;100.00
19831;BME280;10076;52.008;4.708;2023-07-09T06:01:22;101773.75;;;27.89;100.00
19831;BME280;10076;52.008;4.708;2023-07-09T06:03:47;101773.59;;;27.90;100.00
19831;BME280;10076;52.008;4.708;2023-07-09T06:06:13;101778.72;;;28.06;100.00
19831;BME280;10076;52.008;4.708;2023-07-09T06:08:38;101771.13;;;28.01;100.00
19831;BME280;10076;52.008;4.708;2023-07-09T06:11:04;101773.72;;;28.09;100.00
19831;BME280;10076;52.008;4.708;2023-07-09T06:13:30;101778.16;;;28.17;100.00
19831;BME280;10076;52.008;4.708;2023-07-09T06:15:57;101776.03;;;28.12;100.00
19831;BME280;10076;52.008;4.708;2023-07-09T06:18:25;101778.88;;;28.25;100.00
19831;BME280;10076;52.008;4.708;2023-07-09T06:20:55;101782.16;;;28.55;100.00
19831;BME280;10076;52.008;4.708;2023-07-09T06:23:21;101786.97;;;28.53;100.00
19831;BME280;10076;52.008;4.708;2023-07-09T06:25:47;101788.31;;;28.69;100.00
19831;BME280;10076;52.008;4.708;2023-07-09T06:28:20;101793.00;;;28.82;100.00
19831;BME280;10076;52.008;4.708;2023-07-09T06:30:46;101800.13;;;28.89;100.00
19831;BME280;10076;52.008;4.708;2023-07-09T06:33:13;101793.22;;;28.87;100.00
19831;BME280;10076;52.008;4.708;2023-07-09T06:35:38;101796.81;;;29.00;100.00
19831;BME280;10076;52.008;4.708;2023-07-09T06:38:05;101793.34;;;29.13;100.00
19831;BME280;10076;52.008;4.708;2023-07-09T06:40:30;101794.81;;;29.15;100.00
19831;BME280;10076;52.008;4.708;2023-07-09T06:42:56;101799.44;;;29.21;100.00
19831;BME280;10076;52.008;4.708;2023-07-09T06:45:23;101805.38;;;29.38;100.00
19831;BME280;10076;52.008;4.708;2023-07-09T06:47:48;101800.75;;;29.38;100.00
19831;BME280;10076;52.008;4.708;2023-07-09T06:50:14;101805.59;;;29.55;100.00
19831;BME280;10076;52.008;4.708;2023-07-09T06:52:40;101805.22;;;29.71;100.00
19831;BME280;10076;52.008;4.708;2023-07-09T06:55:06;101811.72;;;29.96;100.00
19831;BME280;10076;52.008;4.708;2023-07-09T06:57:31;101810.88;;;29.76;100.00
19831;BME280;10076;52.008;4.708;2023-07-09T06:59:56;101815.00;;;29.53;100.00
19831;BME280;10076;52.008;4.708;2023-07-09T07:02:22;101818.13;;;29.43;100.00
19831;BME280;10076;52.008;4.708;2023-07-09T07:04:47;101817.31;;;29.43;100.00
19831;BME280;10076;52.008;4.708;2023-07-09T07:07:12;101824.34;;;29.31;100.00
19831;BME280;10076;52.008;4.708;2023-07-09T07:09:38;101827.28;;;29.23;100.00
19831;BME280;10076;52.008;4.708;2023-07-09T07:12:03;101832.94;;;29.28;100.00
19831;BME280;10076;52.008;4.708;2023-07-09T07:14:29;101823.09;;;29.27;100.00
19831;BME280;10076;52.008;4.708;2023-07-09T07:16:56;101819.44;;;29.01;100.00
19831;BME280;10076;52.008;4.708;2023-07-09T07:19:22;101825.13;;;29.06;100.00
19831;BME280;10076;52.008;4.708;2023-07-09T07:21:47;101827.91;;;29.19;100.00
19831;BME280;10076;52.008;4.708;2023-07-09T07:24:12;101817.41;;;29.09;100.00
19831;BME280;10076;52.008;4.708;2023-07-09T07:26:37;101819.44;;;29.01;100.00
19831;BME280;10076;52.008;4.708;2023-07-09T07:29:03;101819.13;;;29.23;100.00
19831;BME280;10076;52.008;4.708;2023-07-09T07:31:28;101806.09;;;29.12;100.00
19831;BME280;10076;52.008;4.708;2023-07-09T07:33:53;101815.88;;;28.94;100.00
19831;BME280;10076;52.008;4.708;2023-07-09T07:36:19;101809.88;;;29.11;100.00
19831;BME280;10076;52.008;4.708;2023-07-09T07:38:44;101810.31;;;29.21;100.00
19831;BME280;10076;52.008;4.708;2023-07-09T07:41:09;101804.72;;;29.36;100.00
19831;BME280;10076;52.008;4.708;2023-07-09T07:43:35;101806.59;;;29.35;100.00
19831;BME280;10076;52.008;4.708;2023-07-09T07:46:01;101804.47;;;29.31;100.00
19831;BME280;10076;52.008;4.708;2023-07-09T07:48:26;101804.97;;;29.53;100.00
19831;BME280;10076;52.008;4.708;2023-07-09T07:50:58;101797.41;;;29.55;100.00
19831;BME280;10076;52.008;4.708;2023-07-09T07:53:23;101793.63;;;29.43;100.00
19831;BME280;10076;52.008;4.708;2023-07-09T07:55:49;101796.34;;;29.43;100.00
19831;BME280;10076;52.008;4.708;2023-07-09T07:58:14;101800.97;;;29.49;100.00
19831;BME280;10076;52.008;4.708;2023-07-09T08:00:40;101803.72;;;29.56;100.00
19831;BME280;10076;52.008;4.708;2023-07-09T08:03:05;101797.88;;;29.72;100.00
19831;BME280;10076;52.008;4.708;2023-07-09T08:05:31;101802.06;;;29.81;100.00
19831;BME280;10076;52.008;4.708;2023-07-09T08:07:56;101804.38;;;29.90;100.00
19831;BME280;10076;52.008;4.708;2023-07-09T08:10:22;101802.28;;;29.99;100.00
19831;BME280;10076;52.008;4.708;2023-07-09T08:12:47;101803.53;;;30.09;100.00
19831;BME280;10076;52.008;4.708;2023-07-09T08:15:13;101802.06;;;30.19;100.00
19831;BME280;10076;52.008;4.708;2023-07-09T08:17:38;101792.00;;;30.26;100.00
19831;BME280;10076;52.008;4.708;2023-07-09T08:20:04;101787.38;;;30.46;100.00
19831;BME280;10076;52.008;4.708;2023-07-09T08:22:30;101795.31;;;30.54;100.00
19831;BME280;10076;52.008;4.708;2023-07-09T08:24:55;101792.16;;;30.57;100.00
19831;BME280;10076;52.008;4.708;2023-07-09T08:27:20;101781.84;;;30.72;100.00
19831;BME280;10076;52.008;4.708;2023-07-09T08:29:46;101785.94;;;30.94;100.00
19831;BME280;10076;52.008;4.708;2023-07-09T08:32:12;101791.84;;;30.97;100.00
19831;BME280;10076;52.008;4.708;2023-07-09T08:34:39;101792.03;;;30.96;100.00
19831;BME280;10076;52.008;4.708;2023-07-09T08:37:06;101791.81;;;30.91;100.00
19831;BME280;10076;52.008;4.708;2023-07-09T08:39:31;101790.56;;;31.00;100.00
19831;BME280;10076;52.008;4.708;2023-07-09T08:42:02;101788.59;;;31.13;100.00
19831;BME280;10076;52.008;4.708;2023-07-09T08:49:54;101786.00;;;31.25;100.00
19831;BME280;10076;52.008;4.708;2023-07-09T08:52:30;101789.03;;;31.41;100.00
19831;BME280;10076;52.008;4.708;2023-07-09T08:54:59;101793.16;;;31.87;100.00
19831;BME280;10076;52.008;4.708;2023-07-09T08:57:29;101792.91;;;32.37;100.00
19831;BME280;10076;52.008;4.708;2023-07-09T09:00:07;101786.31;;;32.98;100.00
19831;BME280;10076;52.008;4.708;2023-07-09T09:02:50;101791.16;;;33.14;100.00
19831;BME280;10076;52.008;4.708;2023-07-09T09:05:19;101798.03;;;33.35;100.00
19831;BME280;10076;52.008;4.708;2023-07-09T09:07:49;101798.50;;;33.61;100.00
19831;BME280;10076;52.008;4.708;2023-07-09T09:10:27;101800.66;;;33.71;100.00
19831;BME280;10076;52.008;4.708;2023-07-09T09:13:15;101808.19;;;33.46;100.00
19831;BME280;10076;52.008;4.708;2023-07-09T09:15:46;101806.59;;;33.56;100.00
19831;BME280;10076;52.008;4.708;2023-07-09T09:18:19;101817.91;;;33.60;100.00
19831;BME280;10076;52.008;4.708;2023-07-09T09:23:40;101814.00;;;33.67;100.00
19831;BME280;10076;52.008;4.708;2023-07-09T09:26:21;101815.97;;;34.01;100.00
19831;BME280;10076;52.008;4.708;2023-07-09T09:28:48;101819.59;;;34.36;100.00
19831;BME280;10076;52.008;4.708;2023-07-09T09:31:14;101815.88;;;34.42;100.00
19831;BME280;10076;52.008;4.708;2023-07-09T09:33:43;101824.34;;;34.29;100.00
19831;BME280;10076;52.008;4.708;2023-07-09T09:36:25;101824.34;;;34.17;100.00
19831;BME280;10076;52.008;4.708;2023-07-09T09:38:52;101814.94;;;34.59;100.00
19831;BME280;10076;52.008;4.708;2023-07-09T09:41:23;101813.56;;;34.84;100.00
19831;BME280;10076;52.008;4.708;2023-07-09T09:43:52;101811.78;;;35.45;100.00
19831;BME280;10076;52.008;4.708;2023-07-09T09:46:20;101809.41;;;35.49;100.00
19831;BME280;10076;52.008;4.708;2023-07-09T09:48:48;101803.53;;;35.29;100.00
19831;BME280;10076;52.008;4.708;2023-07-09T09:51:14;101804.44;;;35.46;100.00
19831;BME280;10076;52.008;4.708;2023-07-09T09:53:45;101811.28;;;35.60;100.00
19831;BME280;10076;52.008;4.708;2023-07-09T09:56:16;101808.94;;;35.68;100.00
19831;BME280;10076;52.008;4.708;2023-07-09T09:58:43;101806.72;;;35.82;100.00
19831;BME280;10076;52.008;4.708;2023-07-09T10:01:16;101813.53;;;36.61;100.00
19831;BME280;10076;52.008;4.708;2023-07-09T10:03:41;101790.03;;;37.44;97.91
19831;BME280;10076;52.008;4.708;2023-07-09T10:06:19;101792.25;;;38.41;87.55
19831;BME280;10076;52.008;4.708;2023-07-09T10:14:00;101803.00;;;40.04;72.12
19831;BME280;10076;52.008;4.708;2023-07-09T10:16:34;101810.91;;;39.31;75.71
19831;BME280;10076;52.008;4.708;2023-07-09T10:21:59;101827.38;;;38.96;77.67
19831;BME280;10076;52.008;4.708;2023-07-09T10:24:45;101817.75;;;39.04;76.83
19831;BME280;10076;52.008;4.708;2023-07-09T10:27:31;101826.22;;;39.63;73.79
19831;BME280;10076;52.008;4.708;2023-07-09T10:32:34;101811.88;;;41.62;67.03
19831;BME280;10076;52.008;4.708;2023-07-09T10:35:05;101805.19;;;42.30;63.31
19831;BME280;10076;52.008;4.708;2023-07-09T10:37:59;101819.63;;;42.55;63.32
19831;BME280;10076;52.008;4.708;2023-07-09T10:40:36;101815.16;;;43.42;60.60
19831;BME280;10076;52.008;4.708;2023-07-09T10:43:04;101805.75;;;44.92;56.01
19831;BME280;10076;52.008;4.708;2023-07-09T10:45:37;101806.75;;;45.37;50.44
19831;BME280;10076;52.008;4.708;2023-07-09T10:48:10;101814.19;;;45.41;49.84
19831;BME280;10076;52.008;4.708;2023-07-09T10:50:41;101814.19;;;46.28;48.64
19831;BME280;10076;52.008;4.708;2023-07-09T10:53:12;101828.44;;;45.97;48.09
19831;BME280;10076;52.008;4.708;2023-07-09T10:55:53;101844.19;;;44.82;48.38
19831;BME280;10076;52.008;4.708;2023-07-09T10:58:58;101855.50;;;43.63;51.92
19831;BME280;10076;52.008;4.708;2023-07-09T11:01:30;101851.72;;;42.71;55.02
19831;BME280;10076;52.008;4.708;2023-07-09T11:04:00;101839.44;;;41.82;58.17
19831;BME280;10076;52.008;4.708;2023-07-09T11:06:41;101837.41;;;42.54;57.16
19831;BME280;10076;52.008;4.708;2023-07-09T11:09:31;101828.78;;;43.25;55.54
19831;BME280;10076;52.008;4.708;2023-07-09T11:12:24;101838.91;;;44.54;55.16
19831;BME280;10076;52.008;4.708;2023-07-09T11:14:54;101835.44;;;45.02;49.95
19831;BME280;10076;52.008;4.708;2023-07-09T11:17:21;101828.09;;;44.92;49.46
19831;BME280;10076;52.008;4.708;2023-07-09T11:19:59;101826.13;;;44.93;49.35
19831;BME280;10076;52.008;4.708;2023-07-09T11:22:40;101831.59;;;44.58;50.26
19831;BME280;10076;52.008;4.708;2023-07-09T11:25:07;101833.59;;;44.25;51.13
19831;BME280;10076;52.008;4.708;2023-07-09T11:27:32;101840.75;;;43.63;51.05
19831;BME280;10076;52.008;4.708;2023-07-09T11:30:16;101835.94;;;42.66;53.07
19831;BME280;10076;52.008;4.708;2023-07-09T11:32:46;101833.22;;;41.62;56.59
19831;BME280;10076;52.008;4.708;2023-07-09T11:35:20;101847.56;;;40.47;59.49
19831;BME280;10076;52.008;4.708;2023-07-09T11:37:46;101842.56;;;39.85;64.93
19831;BME280;10076;52.008;4.708;2023-07-09T11:40:12;101844.72;;;39.48;65.72
19831;BME280;10076;52.008;4.708;2023-07-09T11:42:57;101847.00;;;38.54;70.41
19831;BME280;10076;52.008;4.708;2023-07-09T11:45:29;101844.19;;;37.76;77.22
19831;BME280;10076;52.008;4.708;2023-07-09T11:48:00;101853.91;;;37.36;80.96
19831;BME280;10076;52.008;4.708;2023-07-09T11:50:33;101866.50;;;36.68;86.35
19831;BME280;10076;52.008;4.708;2023-07-09T11:53:14;101867.59;;;36.67;89.27
19831;BME280;10076;52.008;4.708;2023-07-09T11:55:46;101873.19;;;38.15;80.92
19831;BME280;10076;52.008;4.708;2023-07-09T11:58:15;101885.13;;;37.89;80.13
19831;BME280;10076;52.008;4.708;2023-07-09T12:00:46;101893.06;;;37.17;83.96
19831;BME280;10076;52.008;4.708;2023-07-09T12:03:36;101899.81;;;36.50;88.41
19831;BME280;10076;52.008;4.708;2023-07-09T12:06:13;101894.19;;;36.78;89.89
19831;BME280;10076;52.008;4.708;2023-07-09T12:08:42;101885.38;;;36.97;82.81
19831;BME280;10076;52.008;4.708;2023-07-09T12:11:27;101884.38;;;36.65;87.00
19831;BME280;10076;52.008;4.708;2023-07-09T12:13:54;101873.31;;;36.44;87.76
19831;BME280;10076;52.008;4.708;2023-07-09T12:16:24;101888.88;;;36.06;89.73
19831;BME280;10076;52.008;4.708;2023-07-09T12:18:50;101882.72;;;36.15;89.88
19831;BME280;10076;52.008;4.708;2023-07-09T12:21:15;101874.59;;;36.58;88.80
19831;BME280;10076;52.008;4.708;2023-07-09T12:23:40;101871.41;;;36.66;87.97
19831;BME280;10076;52.008;4.708;2023-07-09T12:26:12;101872.56;;;36.70;84.28
19831;BME280;10076;52.008;4.708;2023-07-09T12:28:38;101894.53;;;36.16;81.52
19831;BME280;10076;52.008;4.708;2023-07-09T12:31:03;101896.16;;;35.17;88.00
19831;BME280;10076;52.008;4.708;2023-07-09T12:33:28;101892.34;;;34.49;95.50
19831;BME280;10076;52.008;4.708;2023-07-09T12:35:58;101866.81;;;34.38;96.24
19831;BME280;10076;52.008;4.708;2023-07-09T12:38:26;101868.28;;;34.40;97.11
19831;BME280;10076;52.008;4.708;2023-07-09T12:40:53;101869.69;;;34.31;98.66
19831;BME280;10076;52.008;4.708;2023-07-09T12:43:26;101861.94;;;33.76;100.00
19831;BME280;10076;52.008;4.708;2023-07-09T12:45:53;101863.53;;;33.00;100.00
19831;BME280;10076;52.008;4.708;2023-07-09T12:48:21;101878.47;;;32.87;100.00
19831;BME280;10076;52.008;4.708;2023-07-09T12:50:49;101898.59;;;32.50;100.00
19831;BME280;10076;52.008;4.708;2023-07-09T12:53:20;101899.53;;;32.20;100.00
19831;BME280;10076;52.008;4.708;2023-07-09T12:55:49;101897.38;;;32.22;100.00
19831;BME280;10076;52.008;4.708;2023-07-09T12:58:33;101905.56;;;31.60;100.00
19831;BME280;10076;52.008;4.708;2023-07-09T13:01:06;101908.47;;;31.15;100.00
19831;BME280;10076;52.008;4.708;2023-07-09T13:03:32;101900.16;;;30.84;100.00
19831;BME280;10076;52.008;4.708;2023-07-09T13:06:00;101902.09;;;30.51;100.00
19831;BME280;10076;52.008;4.708;2023-07-09T13:08:29;101900.22;;;30.45;100.00
19831;BME280;10076;52.008;4.708;2023-07-09T13:10:56;101896.22;;;30.03;100.00
19831;BME280;10076;52.008;4.708;2023-07-09T13:13:23;101886.31;;;29.89;100.00